sensor_id;sensor_type;location;lat;lon;timestamp;temperature;humidity
6462;DHT22;3264;42.862;25.098;2023-08-21T00:01:14;18.80;99.90
6462;DHT22;3264;42.862;25.098;2023-08-21T00:03:42;18.80;99.90
6462;DHT22;3264;42.862;25.098;2023-08-21T00:06:12;18.70;99.90
6462;DHT22;3264;42.862;25.098;2023-08-21T00:08:42;18.60;99.90
6462;DHT22;3264;42.862;25.098;2023-08-21T00:11:12;18.70;99.90
6462;DHT22;3264;42.862;25.098;2023-08-21T00:13:45;18.60;99.90
6462;DHT22;3264;42.862;25.098;2023-08-21T00:16:15;18.50;99.90
6462;DHT22;3264;42.862;25.098;2023-08-21T00:18:43;18.50;99.90
6462;DHT22;3264;42.862;25.098;2023-08-21T00:21:14;18.50;99.90
6462;DHT22;3264;42.862;25.098;2023-08-21T00:23:41;18.50;99.90
6462;DHT22;3264;42.862;25.098;2023-08-21T00:26:13;18.40;99.90
6462;DHT22;3264;42.862;25.098;2023-08-21T00:28:44;18.40;99.90
6462;DHT22;3264;42.862;25.098;2023-08-21T00:31:12;18.40;99.90
6462;DHT22;3264;42.862;25.098;2023-08-21T00:33:44;18.30;99.90
6462;DHT22;3264;42.862;25.098;2023-08-21T00:36:16;18.30;99.90
6462;DHT22;3264;42.862;25.098;2023-08-21T00:38:46;18.30;99.90
6462;DHT22;3264;42.862;25.098;2023-08-21T00:41:17;18.30;99.90
6462;DHT22;3264;42.862;25.098;2023-08-21T00:43:47;18.30;99.90
6462;DHT22;3264;42.862;25.098;2023-08-21T00:46:16;18.30;99.90
6462;DHT22;3264;42.862;25.098;2023-08-21T00:48:44;18.30;99.90
6462;DHT22;3264;42.862;25.098;2023-08-21T00:51:19;18.30;99.90
6462;DHT22;3264;42.862;25.098;2023-08-21T00:54:01;18.30;99.90
6462;DHT22;3264;42.862;25.098;2023-08-21T00:56:28;18.20;99.90
6462;DHT22;3264;42.862;25.098;2023-08-21T00:58:56;18.20;99.90
6462;DHT22;3264;42.862;25.098;2023-08-21T01:01:25;18.20;99.90
6462;DHT22;3264;42.862;25.098;2023-08-21T01:03:55;18.20;99.90
6462;DHT22;3264;42.862;25.098;2023-08-21T01:06:24;18.20;99.90
6462;DHT22;3264;42.862;25.098;2023-08-21T01:08:57;18.20;99.90
6462;DHT22;3264;42.862;25.098;2023-08-21T01:11:30;18.20;99.90
6462;DHT22;3264;42.862;25.098;2023-08-21T01:14:06;18.10;99.90
6462;DHT22;3264;42.862;25.098;2023-08-21T01:16:38;18.10;99.90
6462;DHT22;3264;42.862;25.098;2023-08-21T01:19:21;18.00;99.90
6462;DHT22;3264;42.862;25.098;2023-08-21T01:22:00;17.90;99.90
6462;DHT22;3264;42.862;25.098;2023-08-21T01:24:29;18.00;99.90
6462;DHT22;3264;42.862;25.098;2023-08-21T01:26:57;18.00;99.90
6462;DHT22;3264;42.862;25.098;2023-08-21T01:29:30;17.90;99.90
6462;DHT22;3264;42.862;25.098;2023-08-21T01:32:06;18.00;99.90
6462;DHT22;3264;42.862;25.098;2023-08-21T01:34:40;17.90;99.90
6462;DHT22;3264;42.862;25.098;2023-08-21T01:37:11;17.80;99.90
6462;DHT22;3264;42.862;25.098;2023-08-21T01:39:51;17.80;99.90
6462;DHT22;3264;42.862;25.098;2023-08-21T01:42:21;17.80;99.90
6462;DHT22;3264;42.862;25.098;2023-08-21T01:44:51;17.80;99.90
6462;DHT22;3264;42.862;25.098;2023-08-21T01:47:24;17.80;99.90
6462;DHT22;3264;42.862;25.098;2023-08-21T01:49:55;17.80;99.90
6462;DHT22;3264;42.862;25.098;2023-08-21T01:52:25;17.80;99.90
6462;DHT22;3264;42.862;25.098;2023-08-21T01:54:55;17.70;99.90
6462;DHT22;3264;42.862;25.098;2023-08-21T01:57:24;17.70;99.90
6462;DHT22;3264;42.862;25.098;2023-08-21T01:59:55;17.70;99.90
6462;DHT22;3264;42.862;25.098;2023-08-21T02:02:26;17.70;99.90
6462;DHT22;3264;42.862;25.098;2023-08-21T02:04:53;17.80;99.90
6462;DHT22;3264;42.862;25.098;2023-08-21T02:07:27;17.80;99.90
6462;DHT22;3264;42.862;25.098;2023-08-21T02:10:03;17.80;99.90
6462;DHT22;3264;42.862;25.098;2023-08-21T02:12:34;17.80;99.90
6462;DHT22;3264;42.862;25.098;2023-08-21T02:15:03;17.70;99.90
6462;DHT22;3264;42.862;25.098;2023-08-21T02:17:32;17.70;99.90
6462;DHT22;3264;42.862;25.098;2023-08-21T02:19:59;17.70;99.90
6462;DHT22;3264;42.862;25.098;2023-08-21T02:22:29;17.70;99.90
6462;DHT22;3264;42.862;25.098;2023-08-21T02:25:02;17.70;99.90
6462;DHT22;3264;42.862;25.098;2023-08-21T02:27:32;17.70;99.90
6462;DHT22;3264;42.862;25.098;2023-08-21T02:30:00;17.60;99.90
6462;DHT22;3264;42.862;25.098;2023-08-21T02:32:32;17.60;99.90
6462;DHT22;3264;42.862;25.098;2023-08-21T02:35:25;17.60;99.90
6462;DHT22;3264;42.862;25.098;2023-08-21T02:37:58;17.70;99.90
6462;DHT22;3264;42.862;25.098;2023-08-21T02:40:27;17.60;99.90
6462;DHT22;3264;42.862;25.098;2023-08-21T02:42:55;17.50;99.90
6462;DHT22;3264;42.862;25.098;2023-08-21T02:45:33;17.50;99.90
6462;DHT22;3264;42.862;25.098;2023-08-21T02:48:01;17.40;99.90
6462;DHT22;3264;42.862;25.098;2023-08-21T02:50:42;17.40;99.90
6462;DHT22;3264;42.862;25.098;2023-08-21T02:53:15;17.40;99.90
6462;DHT22;3264;42.862;25.098;2023-08-21T02:55:44;17.40;99.90
6462;DHT22;3264;42.862;25.098;2023-08-21T02:58:13;17.40;99.90
6462;DHT22;3264;42.862;25.098;2023-08-21T03:00:41;17.50;99.90
6462;DHT22;3264;42.862;25.098;2023-08-21T03:03:12;17.50;99.90
6462;DHT22;3264;42.862;25.098;2023-08-21T03:05:43;17.40;99.90
6462;DHT22;3264;42.862;25.098;2023-08-21T03:08:13;17.50;99.90
6462;DHT22;3264;42.862;25.098;2023-08-21T03:10:45;17.50;99.90
6462;DHT22;3264;42.862;25.098;2023-08-21T03:13:13;17.40;99.90
6462;DHT22;3264;42.862;25.098;2023-08-21T03:15:43;17.40;99.90
6462;DHT22;3264;42.862;25.098;2023-08-21T03:18:12;17.30;99.90
6462;DHT22;3264;42.862;25.098;2023-08-21T03:20:44;17.30;99.90
6462;DHT22;3264;42.862;25.098;2023-08-21T03:23:21;17.30;99.90
6462;DHT22;3264;42.862;25.098;2023-08-21T03:25:52;17.30;99.90
6462;DHT22;3264;42.862;25.098;2023-08-21T03:28:19;17.20;99.90
6462;DHT22;3264;42.862;25.098;2023-08-21T03:30:47;17.20;99.90
6462;DHT22;3264;42.862;25.098;2023-08-21T03:33:18;17.30;99.90
6462;DHT22;3264;42.862;25.098;2023-08-21T03:35:53;17.20;99.90
6462;DHT22;3264;42.862;25.098;2023-08-21T03:38:24;17.20;99.90
6462;DHT22;3264;42.862;25.098;2023-08-21T03:40:55;17.20;99.90
6462;DHT22;3264;42.862;25.098;2023-08-21T03:43:27;17.20;99.90
6462;DHT22;3264;42.862;25.098;2023-08-21T03:46:07;17.20;99.90
6462;DHT22;3264;42.862;25.098;2023-08-21T03:48:36;17.20;99.90
6462;DHT22;3264;42.862;25.098;2023-08-21T03:51:04;17.30;99.90
6462;DHT22;3264;42.862;25.098;2023-08-21T03:53:32;17.30;99.90
6462;DHT22;3264;42.862;25.098;2023-08-21T03:56:10;17.30;99.90
6462;DHT22;3264;42.862;25.098;2023-08-21T03:58:44;17.30;99.90
6462;DHT22;3264;42.862;25.098;2023-08-21T04:01:15;17.20;99.90
6462;DHT22;3264;42.862;25.098;2023-08-21T04:03:45;17.30;99.90
6462;DHT22;3264;42.862;25.098;2023-08-21T04:06:13;17.30;99.90
6462;DHT22;3264;42.862;25.098;2023-08-21T04:08:49;17.40;99.90
6462;DHT22;3264;42.862;25.098;2023-08-21T04:11:18;17.50;99.90
6462;DHT22;3264;42.862;25.098;2023-08-21T04:13:50;17.50;99.90
6462;DHT22;3264;42.862;25.098;2023-08-21T04:16:18;17.50;99.90
6462;DHT22;3264;42.862;25.098;2023-08-21T04:18:47;17.50;99.90
6462;DHT22;3264;42.862;25.098;2023-08-21T04:21:17;17.40;99.90
6462;DHT22;3264;42.862;25.098;2023-08-21T04:23:44;17.50;99.90
6462;DHT22;3264;42.862;25.098;2023-08-21T04:26:17;17.60;99.90
6462;DHT22;3264;42.862;25.098;2023-08-21T04:28:49;17.60;99.90
6462;DHT22;3264;42.862;25.098;2023-08-21T04:31:20;17.70;99.90
6462;DHT22;3264;42.862;25.098;2023-08-21T04:33:49;17.80;99.90
6462;DHT22;3264;42.862;25.098;2023-08-21T04:39:04;17.80;99.90
6462;DHT22;3264;42.862;25.098;2023-08-21T04:41:34;17.90;99.90
6462;DHT22;3264;42.862;25.098;2023-08-21T04:44:01;17.90;99.90
6462;DHT22;3264;42.862;25.098;2023-08-21T04:46:34;18.00;99.90
6462;DHT22;3264;42.862;25.098;2023-08-21T04:53:20;18.40;99.90
6462;DHT22;3264;42.862;25.098;2023-08-21T04:55:51;18.50;99.90
6462;DHT22;3264;42.862;25.098;2023-08-21T05:01:59;18.80;99.90
6462;DHT22;3264;42.862;25.098;2023-08-21T05:04:32;18.80;99.90
6462;DHT22;3264;42.862;25.098;2023-08-21T05:07:00;19.00;99.90
6462;DHT22;3264;42.862;25.098;2023-08-21T05:09:28;19.20;99.90
6462;DHT22;3264;42.862;25.098;2023-08-21T05:11:59;19.40;99.90
6462;DHT22;3264;42.862;25.098;2023-08-21T05:14:26;19.50;99.90
6462;DHT22;3264;42.862;25.098;2023-08-21T05:16:57;19.60;99.90
6462;DHT22;3264;42.862;25.098;2023-08-21T05:19:26;19.80;99.90
6462;DHT22;3264;42.862;25.098;2023-08-21T05:21:56;19.80;99.90
6462;DHT22;3264;42.862;25.098;2023-08-21T05:24:28;19.90;99.90
6462;DHT22;3264;42.862;25.098;2023-08-21T05:27:00;20.00;99.90
6462;DHT22;3264;42.862;25.098;2023-08-21T05:29:30;20.10;99.90
6462;DHT22;3264;42.862;25.098;2023-08-21T05:32:00;20.30;99.90
6462;DHT22;3264;42.862;25.098;2023-08-21T05:34:56;20.50;99.90
6462;DHT22;3264;42.862;25.098;2023-08-21T05:37:27;20.70;99.90
6462;DHT22;3264;42.862;25.098;2023-08-21T05:39:57;20.90;99.90
6462;DHT22;3264;42.862;25.098;2023-08-21T05:42:33;21.20;99.90
6462;DHT22;3264;42.862;25.098;2023-08-21T05:45:00;21.20;99.90
6462;DHT22;3264;42.862;25.098;2023-08-21T05:47:33;21.20;99.90
6462;DHT22;3264;42.862;25.098;2023-08-21T05:50:07;21.50;99.90
6462;DHT22;3264;42.862;25.098;2023-08-21T05:52:37;21.40;99.90
6462;DHT22;3264;42.862;25.098;2023-08-21T05:55:06;21.70;99.90
6462;DHT22;3264;42.862;25.098;2023-08-21T05:57:34;22.00;99.90
6462;DHT22;3264;42.862;25.098;2023-08-21T06:00:04;22.30;99.90
6462;DHT22;3264;42.862;25.098;2023-08-21T06:02:34;22.50;99.90
6462;DHT22;3264;42.862;25.098;2023-08-21T06:05:07;22.70;99.90
6462;DHT22;3264;42.862;25.098;2023-08-21T06:07:48;22.90;99.90
6462;DHT22;3264;42.862;25.098;2023-08-21T06:10:23;23.20;99.90
6462;DHT22;3264;42.862;25.098;2023-08-21T06:12:52;23.40;99.90
6462;DHT22;3264;42.862;25.098;2023-08-21T06:15:34;23.90;99.90
6462;DHT22;3264;42.862;25.098;2023-08-21T06:18:05;24.00;99.90
6462;DHT22;3264;42.862;25.098;2023-08-21T06:20:37;24.20;99.90
6462;DHT22;3264;42.862;25.098;2023-08-21T06:23:05;24.50;99.40
6462;DHT22;3264;42.862;25.098;2023-08-21T06:25:35;24.60;99.90
6462;DHT22;3264;42.862;25.098;2023-08-21T06:28:04;24.70;98.70
6462;DHT22;3264;42.862;25.098;2023-08-21T06:30:34;25.20;99.30
6462;DHT22;3264;42.862;25.098;2023-08-21T06:33:17;25.50;98.40
6462;DHT22;3264;42.862;25.098;2023-08-21T06:35:50;25.70;98.70
6462;DHT22;3264;42.862;25.098;2023-08-21T06:38:25;25.30;96.90
6462;DHT22;3264;42.862;25.098;2023-08-21T06:40:56;25.70;98.00
6462;DHT22;3264;42.862;25.098;2023-08-21T06:43:24;26.10;98.40
6462;DHT22;3264;42.862;25.098;2023-08-21T06:45:52;26.50;98.50
6462;DHT22;3264;42.862;25.098;2023-08-21T06:48:19;26.70;98.00
6462;DHT22;3264;42.862;25.098;2023-08-21T06:50:56;26.80;94.60
6462;DHT22;3264;42.862;25.098;2023-08-21T06:53:29;26.80;93.70
6462;DHT22;3264;42.862;25.098;2023-08-21T06:55:56;26.90;93.30
6462;DHT22;3264;42.862;25.098;2023-08-21T06:58:24;27.30;94.20
6462;DHT22;3264;42.862;25.098;2023-08-21T07:01:02;27.70;93.70
6462;DHT22;3264;42.862;25.098;2023-08-21T07:03:30;27.00;92.50
6462;DHT22;3264;42.862;25.098;2023-08-21T07:06:00;26.90;92.60
6462;DHT22;3264;42.862;25.098;2023-08-21T07:08:31;27.40;93.60
6462;DHT22;3264;42.862;25.098;2023-08-21T07:11:02;28.00;92.10
6462;DHT22;3264;42.862;25.098;2023-08-21T07:13:31;28.20;92.20
6462;DHT22;3264;42.862;25.098;2023-08-21T07:16:05;28.00;93.30
6462;DHT22;3264;42.862;25.098;2023-08-21T07:18:39;28.20;91.10
6462;DHT22;3264;42.862;25.098;2023-08-21T07:21:08;28.50;91.20
6462;DHT22;3264;42.862;25.098;2023-08-21T07:23:36;28.40;89.40
6462;DHT22;3264;42.862;25.098;2023-08-21T07:26:03;29.00;91.60
6462;DHT22;3264;42.862;25.098;2023-08-21T07:28:34;29.00;89.70
6462;DHT22;3264;42.862;25.098;2023-08-21T07:31:06;29.20;86.30
6462;DHT22;3264;42.862;25.098;2023-08-21T07:33:40;29.70;84.70
6462;DHT22;3264;42.862;25.098;2023-08-21T07:36:09;29.90;86.90
6462;DHT22;3264;42.862;25.098;2023-08-21T07:38:43;30.30;87.40
6462;DHT22;3264;42.862;25.098;2023-08-21T07:41:12;30.30;86.90
6462;DHT22;3264;42.862;25.098;2023-08-21T07:43:43;30.60;86.60
6462;DHT22;3264;42.862;25.098;2023-08-21T07:46:13;30.80;85.90
6462;DHT22;3264;42.862;25.098;2023-08-21T07:48:52;30.80;81.10
6462;DHT22;3264;42.862;25.098;2023-08-21T07:51:21;31.10;81.90
6462;DHT22;3264;42.862;25.098;2023-08-21T07:53:55;31.30;81.60
6462;DHT22;3264;42.862;25.098;2023-08-21T07:56:23;31.50;76.50
6462;DHT22;3264;42.862;25.098;2023-08-21T07:58:54;31.80;77.60
6462;DHT22;3264;42.862;25.098;2023-08-21T08:01:31;31.90;77.70
6462;DHT22;3264;42.862;25.098;2023-08-21T08:04:04;32.00;78.40
6462;DHT22;3264;42.862;25.098;2023-08-21T08:06:35;31.70;73.90
6462;DHT22;3264;42.862;25.098;2023-08-21T08:09:08;32.00;73.60
6462;DHT22;3264;42.862;25.098;2023-08-21T08:11:35;31.40;69.00
6462;DHT22;3264;42.862;25.098;2023-08-21T08:14:05;31.30;71.00
6462;DHT22;3264;42.862;25.098;2023-08-21T08:16:33;31.30;76.00
6462;DHT22;3264;42.862;25.098;2023-08-21T08:19:01;31.90;76.10
6462;DHT22;3264;42.862;25.098;2023-08-21T08:21:36;32.40;75.70
6462;DHT22;3264;42.862;25.098;2023-08-21T08:24:13;32.70;72.80
6462;DHT22;3264;42.862;25.098;2023-08-21T08:26:46;32.90;69.80
6462;DHT22;3264;42.862;25.098;2023-08-21T08:29:19;33.10;68.40
6462;DHT22;3264;42.862;25.098;2023-08-21T08:31:52;33.30;68.70
6462;DHT22;3264;42.862;25.098;2023-08-21T08:34:23;33.20;64.20
6462;DHT22;3264;42.862;25.098;2023-08-21T08:36:52;33.20;64.70
6462;DHT22;3264;42.862;25.098;2023-08-21T08:39:20;33.10;65.20
6462;DHT22;3264;42.862;25.098;2023-08-21T08:41:53;33.10;69.00
6462;DHT22;3264;42.862;25.098;2023-08-21T08:44:26;33.40;69.40
6462;DHT22;3264;42.862;25.098;2023-08-21T08:46:58;33.40;67.80
6462;DHT22;3264;42.862;25.098;2023-08-21T08:49:30;32.60;65.60
6462;DHT22;3264;42.862;25.098;2023-08-21T08:52:00;33.10;69.30
6462;DHT22;3264;42.862;25.098;2023-08-21T08:54:31;33.40;68.00
6462;DHT22;3264;42.862;25.098;2023-08-21T08:57:09;33.20;66.20
6462;DHT22;3264;42.862;25.098;2023-08-21T08:59:40;33.60;66.80
6462;DHT22;3264;42.862;25.098;2023-08-21T09:02:09;33.60;69.00
6462;DHT22;3264;42.862;25.098;2023-08-21T09:04:37;33.70;69.70
6462;DHT22;3264;42.862;25.098;2023-08-21T09:07:10;33.80;69.00
6462;DHT22;3264;42.862;25.098;2023-08-21T09:09:46;33.90;65.70
6462;DHT22;3264;42.862;25.098;2023-08-21T09:12:16;34.20;63.80
6462;DHT22;3264;42.862;25.098;2023-08-21T09:14:46;34.60;61.50
6462;DHT22;3264;42.862;25.098;2023-08-21T09:17:15;34.50;60.70
6462;DHT22;3264;42.862;25.098;2023-08-21T09:19:43;34.70;61.90
6462;DHT22;3264;42.862;25.098;2023-08-21T09:22:15;34.90;60.20
6462;DHT22;3264;42.862;25.098;2023-08-21T09:24:59;35.10;59.10
6462;DHT22;3264;42.862;25.098;2023-08-21T09:27:32;34.70;60.00
6462;DHT22;3264;42.862;25.098;2023-08-21T09:30:00;35.00;56.80
6462;DHT22;3264;42.862;25.098;2023-08-21T09:32:28;34.80;58.00
6462;DHT22;3264;42.862;25.098;2023-08-21T09:34:56;34.80;56.00
6462;DHT22;3264;42.862;25.098;2023-08-21T09:37:32;34.60;57.70
6462;DHT22;3264;42.862;25.098;2023-08-21T09:40:01;34.80;58.50
6462;DHT22;3264;42.862;25.098;2023-08-21T09:42:31;35.00;56.50
6462;DHT22;3264;42.862;25.098;2023-08-21T09:45:01;34.80;57.00
6462;DHT22;3264;42.862;25.098;2023-08-21T09:47:30;34.20;55.80
6462;DHT22;3264;42.862;25.098;2023-08-21T09:50:00;34.60;57.80
6462;DHT22;3264;42.862;25.098;2023-08-21T09:52:28;34.90;55.70
6462;DHT22;3264;42.862;25.098;2023-08-21T09:55:01;35.00;55.50
6462;DHT22;3264;42.862;25.098;2023-08-21T09:57:30;35.30;56.40
6462;DHT22;3264;42.862;25.098;2023-08-21T10:00:04;35.40;56.80
6462;DHT22;3264;42.862;25.098;2023-08-21T10:02:50;35.70;54.40
6462;DHT22;3264;42.862;25.098;2023-08-21T10:05:22;35.60;55.70
6462;DHT22;3264;42.862;25.098;2023-08-21T10:07:50;36.10;53.70
6462;DHT22;3264;42.862;25.098;2023-08-21T10:10:21;35.70;55.50
6462;DHT22;3264;42.862;25.098;2023-08-21T10:12:49;35.80;53.80
6462;DHT22;3264;42.862;25.098;2023-08-21T10:15:17;35.90;53.10
6462;DHT22;3264;42.862;25.098;2023-08-21T10:17:45;35.90;52.50
6462;DHT22;3264;42.862;25.098;2023-08-21T10:20:21;35.60;51.80
6462;DHT22;3264;42.862;25.098;2023-08-21T10:22:53;35.80;53.10
6462;DHT22;3264;42.862;25.098;2023-08-21T10:25:24;35.80;51.30
6462;DHT22;3264;42.862;25.098;2023-08-21T10:27:53;35.40;51.90
6462;DHT22;3264;42.862;25.098;2023-08-21T10:30:29;35.30;52.70
6462;DHT22;3264;42.862;25.098;2023-08-21T10:32:59;35.50;53.10
6462;DHT22;3264;42.862;25.098;2023-08-21T10:35:29;35.50;53.70
6462;DHT22;3264;42.862;25.098;2023-08-21T10:38:07;35.60;52.30
6462;DHT22;3264;42.862;25.098;2023-08-21T10:40:39;35.70;50.90
6462;DHT22;3264;42.862;25.098;2023-08-21T10:53:18;36.00;52.90
6462;DHT22;3264;42.862;25.098;2023-08-21T10:55:54;35.80;52.00
6462;DHT22;3264;42.862;25.098;2023-08-21T10:58:22;35.90;51.60
6462;DHT22;3264;42.862;25.098;2023-08-21T11:00:57;36.10;51.20
6462;DHT22;3264;42.862;25.098;2023-08-21T11:03:26;36.00;51.30
6462;DHT22;3264;42.862;25.098;2023-08-21T11:06:11;36.00;53.10
6462;DHT22;3264;42.862;25.098;2023-08-21T11:08:42;35.80;50.60
6462;DHT22;3264;42.862;25.098;2023-08-21T11:11:10;36.00;51.90
6462;DHT22;3264;42.862;25.098;2023-08-21T11:13:38;36.20;51.60
6462;DHT22;3264;42.862;25.098;2023-08-21T11:16:06;36.30;49.70
6462;DHT22;3264;42.862;25.098;2023-08-21T11:18:36;36.60;50.60
6462;DHT22;3264;42.862;25.098;2023-08-21T11:21:06;36.60;53.70
6462;DHT22;3264;42.862;25.098;2023-08-21T11:23:36;36.50;53.10
6462;DHT22;3264;42.862;25.098;2023-08-21T11:26:07;36.60;50.60
6462;DHT22;3264;42.862;25.098;2023-08-21T11:28:40;36.30;52.40
6462;DHT22;3264;42.862;25.098;2023-08-21T11:31:10;36.10;52.10
6462;DHT22;3264;42.862;25.098;2023-08-21T11:33:37;35.70;50.10
6462;DHT22;3264;42.862;25.098;2023-08-21T11:36:06;35.90;50.10
6462;DHT22;3264;42.862;25.098;2023-08-21T11:38:34;36.10;50.30
6462;DHT22;3264;42.862;25.098;2023-08-21T11:41:10;36.30;51.70
6462;DHT22;3264;42.862;25.098;2023-08-21T11:43:42;36.50;50.80
6462;DHT22;3264;42.862;25.098;2023-08-21T11:49:52;36.60;51.50
6462;DHT22;3264;42.862;25.098;2023-08-21T11:52:20;36.10;48.10
6462;DHT22;3264;42.862;25.098;2023-08-21T11:54:50;35.30;49.90
6462;DHT22;3264;42.862;25.098;2023-08-21T11:57:20;34.60;49.20
6462;DHT22;3264;42.862;25.098;2023-08-21T11:59:51;34.80;51.60
6462;DHT22;3264;42.862;25.098;2023-08-21T12:02:22;34.80;51.60
6462;DHT22;3264;42.862;25.098;2023-08-21T12:04:53;34.40;52.80
6462;DHT22;3264;42.862;25.098;2023-08-21T12:07:21;33.90;51.80
6462;DHT22;3264;42.862;25.098;2023-08-21T12:09:51;33.70;53.80
6462;DHT22;3264;42.862;25.098;2023-08-21T12:12:22;33.40;54.10
6462;DHT22;3264;42.862;25.098;2023-08-21T12:14:50;33.00;56.40
6462;DHT22;3264;42.862;25.098;2023-08-21T12:17:17;33.40;56.40
6462;DHT22;3264;42.862;25.098;2023-08-21T12:19:45;34.10;54.50
6462;DHT22;3264;42.862;25.098;2023-08-21T12:22:16;34.50;53.40
6462;DHT22;3264;42.862;25.098;2023-08-21T12:24:44;34.80;53.70
6462;DHT22;3264;42.862;25.098;2023-08-21T12:27:13;34.90;51.70
6462;DHT22;3264;42.862;25.098;2023-08-21T12:29:43;35.00;51.10
6462;DHT22;3264;42.862;25.098;2023-08-21T12:32:11;35.00;53.00
6462;DHT22;3264;42.862;25.098;2023-08-21T12:34:38;34.40;51.70
6462;DHT22;3264;42.862;25.098;2023-08-21T12:37:07;34.30;52.00
6462;DHT22;3264;42.862;25.098;2023-08-21T12:39:36;34.50;52.10
6462;DHT22;3264;42.862;25.098;2023-08-21T12:42:03;34.60;52.80
6462;DHT22;3264;42.862;25.098;2023-08-21T12:44:33;34.30;50.70
6462;DHT22;3264;42.862;25.098;2023-08-21T12:47:04;34.60;51.40
6462;DHT22;3264;42.862;25.098;2023-08-21T12:49:32;35.00;50.20
6462;DHT22;3264;42.862;25.098;2023-08-21T12:51:59;35.20;49.30
6462;DHT22;3264;42.862;25.098;2023-08-21T12:54:28;35.10;48.80
6462;DHT22;3264;42.862;25.098;2023-08-21T12:56:56;34.70;47.50
6462;DHT22;3264;42.862;25.098;2023-08-21T12:59:24;34.70;48.40
6462;DHT22;3264;42.862;25.098;2023-08-21T13:01:53;34.90;48.10
6462;DHT22;3264;42.862;25.098;2023-08-21T13:04:22;34.30;47.10
6462;DHT22;3264;42.862;25.098;2023-08-21T13:06:51;33.80;50.20
6462;DHT22;3264;42.862;25.098;2023-08-21T13:09:21;33.60;52.00
6462;DHT22;3264;42.862;25.098;2023-08-21T13:12:00;33.30;55.30
6462;DHT22;3264;42.862;25.098;2023-08-21T13:14:28;33.10;57.10
6462;DHT22;3264;42.862;25.098;2023-08-21T13:16:57;33.30;58.50
6462;DHT22;3264;42.862;25.098;2023-08-21T13:19:27;33.60;54.90
6462;DHT22;3264;42.862;25.098;2023-08-21T13:21:59;33.80;56.10
6462;DHT22;3264;42.862;25.098;2023-08-21T13:24:27;34.00;55.30
6462;DHT22;3264;42.862;25.098;2023-08-21T13:26:56;34.00;55.20
6462;DHT22;3264;42.862;25.098;2023-08-21T13:29:24;34.20;54.10
6462;DHT22;3264;42.862;25.098;2023-08-21T13:31:55;34.20;52.00
6462;DHT22;3264;42.862;25.098;2023-08-21T13:34:22;34.00;48.70
6462;DHT22;3264;42.862;25.098;2023-08-21T13:36:53;34.10;50.20
6462;DHT22;3264;42.862;25.098;2023-08-21T13:39:22;34.40;50.90
6462;DHT22;3264;42.862;25.098;2023-08-21T13:41:52;34.70;49.80
6462;DHT22;3264;42.862;25.098;2023-08-21T13:44:21;34.70;49.70
6462;DHT22;3264;42.862;25.098;2023-08-21T13:46:48;34.70;50.10
6462;DHT22;3264;42.862;25.098;2023-08-21T13:49:16;34.30;50.70
6462;DHT22;3264;42.862;25.098;2023-08-21T13:51:44;34.00;50.30
6462;DHT22;3264;42.862;25.098;2023-08-21T13:54:15;33.80;50.50
6462;DHT22;3264;42.862;25.098;2023-08-21T13:56:43;33.90;51.10
6462;DHT22;3264;42.862;25.098;2023-08-21T13:59:14;34.00;51.10
6462;DHT22;3264;42.862;25.098;2023-08-21T14:01:41;34.00;53.10
6462;DHT22;3264;42.862;25.098;2023-08-21T14:04:09;34.10;53.10
6462;DHT22;3264;42.862;25.098;2023-08-21T14:06:38;33.90;52.90
6462;DHT22;3264;42.862;25.098;2023-08-21T14:09:06;33.50;51.60
6462;DHT22;3264;42.862;25.098;2023-08-21T14:11:35;33.40;52.60
6462;DHT22;3264;42.862;25.098;2023-08-21T14:14:04;33.20;52.50
6462;DHT22;3264;42.862;25.098;2023-08-21T14:16:32;33.10;53.80
6462;DHT22;3264;42.862;25.098;2023-08-21T14:18:59;33.00;54.80
6462;DHT22;3264;42.862;25.098;2023-08-21T14:21:27;33.20;56.50
6462;DHT22;3264;42.862;25.098;2023-08-21T14:23:55;33.20;57.90
6462;DHT22;3264;42.862;25.098;2023-08-21T14:26:23;33.10;54.00
6462;DHT22;3264;42.862;25.098;2023-08-21T14:28:55;33.20;55.60
6462;DHT22;3264;42.862;25.098;2023-08-21T14:31:24;33.40;56.00
6462;DHT22;3264;42.862;25.098;2023-08-21T14:33:53;33.20;55.40
6462;DHT22;3264;42.862;25.098;2023-08-21T14:36:23;32.90;58.20
6462;DHT22;3264;42.862;25.098;2023-08-21T14:38:52;32.70;55.40
6462;DHT22;3264;42.862;25.098;2023-08-21T14:41:20;32.70;56.80
6462;DHT22;3264;42.862;25.098;2023-08-21T14:44:03;32.90;57.00
6462;DHT22;3264;42.862;25.098;2023-08-21T14:46:31;32.90;58.60
6462;DHT22;3264;42.862;25.098;2023-08-21T14:49:00;33.00;57.80
6462;DHT22;3264;42.862;25.098;2023-08-21T14:51:28;32.60;55.50
6462;DHT22;3264;42.862;25.098;2023-08-21T14:53:56;32.40;56.20
6462;DHT22;3264;42.862;25.098;2023-08-21T14:56:23;32.20;59.00
6462;DHT22;3264;42.862;25.098;2023-08-21T14:58:51;31.90;60.60
6462;DHT22;3264;42.862;25.098;2023-08-21T15:01:20;31.80;61.20
6462;DHT22;3264;42.862;25.098;2023-08-21T15:03:48;32.00;61.30
6462;DHT22;3264;42.862;25.098;2023-08-21T15:06:16;32.40;60.10
6462;DHT22;3264;42.862;25.098;2023-08-21T15:08:44;32.50;59.80
6462;DHT22;3264;42.862;25.098;2023-08-21T15:11:13;32.60;60.30
6462;DHT22;3264;42.862;25.098;2023-08-21T15:13:41;32.70;61.00
6462;DHT22;3264;42.862;25.098;2023-08-21T15:16:10;32.70;59.80
6462;DHT22;3264;42.862;25.098;2023-08-21T15:18:39;32.60;58.50
6462;DHT22;3264;42.862;25.098;2023-08-21T15:21:09;32.40;61.50
6462;DHT22;3264;42.862;25.098;2023-08-21T15:23:37;32.20;64.40
6462;DHT22;3264;42.862;25.098;2023-08-21T15:26:06;32.20;65.60
6462;DHT22;3264;42.862;25.098;2023-08-21T15:28:34;32.20;66.40
6462;DHT22;3264;42.862;25.098;2023-08-21T15:31:03;32.10;67.00
6462;DHT22;3264;42.862;25.098;2023-08-21T15:33:33;32.20;65.50
6462;DHT22;3264;42.862;25.098;2023-08-21T15:36:04;32.10;65.50
6462;DHT22;3264;42.862;25.098;2023-08-21T15:38:33;31.80;64.20
6462;DHT22;3264;42.862;25.098;2023-08-21T15:41:02;31.80;66.70
6462;DHT22;3264;42.862;25.098;2023-08-21T15:43:30;31.60;65.70
6462;DHT22;3264;42.862;25.098;2023-08-21T15:46:01;31.50;66.60
6462;DHT22;3264;42.862;25.098;2023-08-21T15:48:32;31.40;67.10
6462;DHT22;3264;42.862;25.098;2023-08-21T15:51:03;31.40;67.50
6462;DHT22;3264;42.862;25.098;2023-08-21T15:53:31;31.30;68.20
6462;DHT22;3264;42.862;25.098;2023-08-21T15:55:58;31.10;69.10
6462;DHT22;3264;42.862;25.098;2023-08-21T15:58:28;31.00;69.20
6462;DHT22;3264;42.862;25.098;2023-08-21T16:00:58;30.70;72.40
6462;DHT22;3264;42.862;25.098;2023-08-21T16:03:26;30.60;70.40
6462;DHT22;3264;42.862;25.098;2023-08-21T16:05:55;30.40;71.00
6462;DHT22;3264;42.862;25.098;2023-08-21T16:08:25;30.30;70.80
6462;DHT22;3264;42.862;25.098;2023-08-21T16:10:53;30.10;72.70
6462;DHT22;3264;42.862;25.098;2023-08-21T16:13:22;29.90;72.60
6462;DHT22;3264;42.862;25.098;2023-08-21T16:15:50;29.70;73.50
6462;DHT22;3264;42.862;25.098;2023-08-21T16:18:17;29.50;73.50
6462;DHT22;3264;42.862;25.098;2023-08-21T16:20:46;29.30;73.30
6462;DHT22;3264;42.862;25.098;2023-08-21T16:23:14;29.10;72.90
6462;DHT22;3264;42.862;25.098;2023-08-21T16:25:44;28.80;73.60
6462;DHT22;3264;42.862;25.098;2023-08-21T16:28:12;28.70;74.30
6462;DHT22;3264;42.862;25.098;2023-08-21T16:30:41;28.50;74.40